sensor_id;sensor_type;location;lat;lon;timestamp;pressure;altitude;pressure_sealevel;temperature;humidity
62055;BME280;48653;51.742;-1.256;2023-06-24T00:01:50;101741.67;;;20.64;45.71
62055;BME280;48653;51.742;-1.256;2023-06-24T00:04:16;101736.65;;;20.07;47.37
62055;BME280;48653;51.742;-1.256;2023-06-24T00:06:41;101737.47;;;20.22;46.76
62055;BME280;48653;51.742;-1.256;2023-06-24T00:09:06;101739.09;;;20.55;46.28
62055;BME280;48653;51.742;-1.256;2023-06-24T00:11:31;101737.93;;;20.73;45.47
62055;BME280;48653;51.742;-1.256;2023-06-24T00:13:57;101734.62;;;20.51;46.19
62055;BME280;48653;51.742;-1.256;2023-06-24T00:16:22;101733.94;;;20.70;46.04
62055;BME280;48653;51.742;-1.256;2023-06-24T00:18:47;101731.56;;;20.73;44.67
62055;BME280;48653;51.742;-1.256;2023-06-24T00:21:12;101730.80;;;20.56;45.56
62055;BME280;48653;51.742;-1.256;2023-06-24T00:23:38;101729.41;;;20.30;45.72
62055;BME280;48653;51.742;-1.256;2023-06-24T00:26:03;101727.22;;;20.15;46.21
62055;BME280;48653;51.742;-1.256;2023-06-24T00:28:29;101726.75;;;20.54;46.45
62055;BME280;48653;51.742;-1.256;2023-06-24T00:30:54;101724.81;;;20.01;46.57
62055;BME280;48653;51.742;-1.256;2023-06-24T00:33:19;101725.96;;;20.42;46.05
62055;BME280;48653;51.742;-1.256;2023-06-24T00:35:45;101727.56;;;20.38;46.25
62055;BME280;48653;51.742;-1.256;2023-06-24T00:38:11;101728.07;;;20.39;46.33
62055;BME280;48653;51.742;-1.256;2023-06-24T00:40:37;101729.13;;;20.80;45.19
62055;BME280;48653;51.742;-1.256;2023-06-24T00:43:02;101732.14;;;20.88;45.52
62055;BME280;48653;51.742;-1.256;2023-06-24T00:45:28;101731.07;;;20.54;45.79
62055;BME280;48653;51.742;-1.256;2023-06-24T00:47:52;101729.23;;;20.59;45.49
62055;BME280;48653;51.742;-1.256;2023-06-24T00:50:18;101728.31;;;20.36;45.45
62055;BME280;48653;51.742;-1.256;2023-06-24T00:52:43;101729.87;;;20.48;46.25
62055;BME280;48653;51.742;-1.256;2023-06-24T00:55:08;101729.53;;;20.54;46.35
62055;BME280;48653;51.742;-1.256;2023-06-24T00:57:33;101725.70;;;20.35;46.58
62055;BME280;48653;51.742;-1.256;2023-06-24T00:59:59;101726.10;;;20.46;45.94
62055;BME280;48653;51.742;-1.256;2023-06-24T01:02:24;101723.91;;;20.38;46.12
62055;BME280;48653;51.742;-1.256;2023-06-24T01:04:49;101721.94;;;20.30;46.50
62055;BME280;48653;51.742;-1.256;2023-06-24T01:07:16;101720.12;;;20.43;46.20
62055;BME280;48653;51.742;-1.256;2023-06-24T01:09:41;101710.71;;;20.04;46.92
62055;BME280;48653;51.742;-1.256;2023-06-24T01:12:07;101709.83;;;18.96;49.23
62055;BME280;48653;51.742;-1.256;2023-06-24T01:14:31;101710.86;;;19.58;48.33
62055;BME280;48653;51.742;-1.256;2023-06-24T01:17:00;101708.80;;;19.58;48.47
62055;BME280;48653;51.742;-1.256;2023-06-24T01:22:01;101706.24;;;19.94;47.14
62055;BME280;48653;51.742;-1.256;2023-06-24T01:29:20;101715.67;;;19.74;46.77
62055;BME280;48653;51.742;-1.256;2023-06-24T01:31:33;101717.19;;;19.88;47.20
62055;BME280;48653;51.742;-1.256;2023-06-24T01:33:58;101713.26;;;20.01;46.84
62055;BME280;48653;51.742;-1.256;2023-06-24T01:36:19;101713.94;;;19.91;46.95
62055;BME280;48653;51.742;-1.256;2023-06-24T01:38:48;101710.56;;;19.70;47.12
62055;BME280;48653;51.742;-1.256;2023-06-24T01:41:11;101706.46;;;19.86;47.26
62055;BME280;48653;51.742;-1.256;2023-06-24T01:43:36;101705.27;;;20.02;46.61
62055;BME280;48653;51.742;-1.256;2023-06-24T01:46:00;101697.78;;;20.27;46.27
62055;BME280;48653;51.742;-1.256;2023-06-24T01:48:27;101697.95;;;20.05;46.25
62055;BME280;48653;51.742;-1.256;2023-06-24T01:50:57;101697.36;;;20.13;46.81
62055;BME280;48653;51.742;-1.256;2023-06-24T01:53:17;101694.07;;;20.00;46.44
62055;BME280;48653;51.742;-1.256;2023-06-24T01:55:41;101696.16;;;19.89;45.95
62055;BME280;48653;51.742;-1.256;2023-06-24T01:58:07;101704.26;;;19.91;46.69
62055;BME280;48653;51.742;-1.256;2023-06-24T02:00:32;101703.94;;;19.85;47.07
62055;BME280;48653;51.742;-1.256;2023-06-24T02:02:57;101704.05;;;19.92;46.69
62055;BME280;48653;51.742;-1.256;2023-06-24T02:05:23;101704.93;;;19.94;46.83
62055;BME280;48653;51.742;-1.256;2023-06-24T02:07:47;101705.27;;;19.58;47.00
62055;BME280;48653;51.742;-1.256;2023-06-24T02:10:12;101703.88;;;19.58;47.54
62055;BME280;48653;51.742;-1.256;2023-06-24T02:12:37;101700.58;;;19.75;47.24
62055;BME280;48653;51.742;-1.256;2023-06-24T02:15:03;101696.20;;;19.59;47.22
62055;BME280;48653;51.742;-1.256;2023-06-24T02:17:27;101694.63;;;19.53;47.63
62055;BME280;48653;51.742;-1.256;2023-06-24T02:19:53;101691.06;;;19.72;46.79
62055;BME280;48653;51.742;-1.256;2023-06-24T02:22:18;101691.54;;;19.84;46.33
62055;BME280;48653;51.742;-1.256;2023-06-24T02:24:43;101695.20;;;19.52;47.11
62055;BME280;48653;51.742;-1.256;2023-06-24T02:27:08;101687.35;;;19.41;46.66
62055;BME280;48653;51.742;-1.256;2023-06-24T02:29:34;101693.63;;;19.65;47.45
62055;BME280;48653;51.742;-1.256;2023-06-24T02:31:58;101700.58;;;19.95;47.09
62055;BME280;48653;51.742;-1.256;2023-06-24T02:34:24;101707.79;;;19.43;47.77
62055;BME280;48653;51.742;-1.256;2023-06-24T02:36:48;101707.35;;;19.88;46.40
62055;BME280;48653;51.742;-1.256;2023-06-24T02:39:13;101708.39;;;20.20;45.84
62055;BME280;48653;51.742;-1.256;2023-06-24T02:41:39;101707.89;;;19.83;46.46
62055;BME280;48653;51.742;-1.256;2023-06-24T02:44:04;101710.39;;;19.95;45.66
62055;BME280;48653;51.742;-1.256;2023-06-24T02:46:30;101704.32;;;19.49;47.01
62055;BME280;48653;51.742;-1.256;2023-06-24T02:48:55;101707.65;;;20.29;45.74
62055;BME280;48653;51.742;-1.256;2023-06-24T02:51:20;101703.53;;;19.66;47.23
62055;BME280;48653;51.742;-1.256;2023-06-24T02:53:46;101700.91;;;19.48;47.46
62055;BME280;48653;51.742;-1.256;2023-06-24T02:56:11;101703.58;;;20.15;45.79
62055;BME280;48653;51.742;-1.256;2023-06-24T02:58:36;101703.99;;;19.95;45.66
62055;BME280;48653;51.742;-1.256;2023-06-24T03:01:00;101704.86;;;20.28;46.14
62055;BME280;48653;51.742;-1.256;2023-06-24T03:03:26;101703.01;;;20.00;46.43
62055;BME280;48653;51.742;-1.256;2023-06-24T03:05:50;101697.61;;;19.56;47.48
62055;BME280;48653;51.742;-1.256;2023-06-24T03:08:15;101699.47;;;19.76;46.94
62055;BME280;48653;51.742;-1.256;2023-06-24T03:10:40;101692.51;;;19.32;47.19
62055;BME280;48653;51.742;-1.256;2023-06-24T03:13:06;101693.02;;;19.20;48.04
62055;BME280;48653;51.742;-1.256;2023-06-24T03:15:32;101691.05;;;19.45;47.75
62055;BME280;48653;51.742;-1.256;2023-06-24T03:17:57;101692.23;;;19.25;48.72
62055;BME280;48653;51.742;-1.256;2023-06-24T03:20:22;101695.84;;;19.46;48.94
62055;BME280;48653;51.742;-1.256;2023-06-24T03:22:47;101690.75;;;19.74;48.10
62055;BME280;48653;51.742;-1.256;2023-06-24T03:25:13;101691.57;;;19.23;48.58
62055;BME280;48653;51.742;-1.256;2023-06-24T03:27:38;101689.30;;;19.19;48.80
62055;BME280;48653;51.742;-1.256;2023-06-24T03:30:05;101690.78;;;19.47;48.04
62055;BME280;48653;51.742;-1.256;2023-06-24T03:32:29;101692.61;;;19.08;49.01
62055;BME280;48653;51.742;-1.256;2023-06-24T03:34:55;101689.52;;;18.88;49.62
62055;BME280;48653;51.742;-1.256;2023-06-24T03:37:20;101687.52;;;18.83;50.09
62055;BME280;48653;51.742;-1.256;2023-06-24T03:39:45;101689.60;;;19.34;48.88
62055;BME280;48653;51.742;-1.256;2023-06-24T03:42:10;101690.11;;;19.63;48.78
62055;BME280;48653;51.742;-1.256;2023-06-24T03:44:35;101688.14;;;19.79;48.07
62055;BME280;48653;51.742;-1.256;2023-06-24T03:47:00;101690.35;;;19.58;48.26
62055;BME280;48653;51.742;-1.256;2023-06-24T03:49:25;101688.05;;;19.65;47.65
62055;BME280;48653;51.742;-1.256;2023-06-24T03:51:50;101692.66;;;19.65;48.04
62055;BME280;48653;51.742;-1.256;2023-06-24T03:54:16;101693.11;;;20.00;47.75
62055;BME280;48653;51.742;-1.256;2023-06-24T03:56:42;101695.04;;;20.23;46.73
62055;BME280;48653;51.742;-1.256;2023-06-24T03:59:07;101692.57;;;20.42;46.12
62055;BME280;48653;51.742;-1.256;2023-06-24T04:01:32;101692.00;;;20.07;47.06
62055;BME280;48653;51.742;-1.256;2023-06-24T04:03:57;101695.40;;;20.02;47.45
62055;BME280;48653;51.742;-1.256;2023-06-24T04:06:22;101703.84;;;20.23;46.85
62055;BME280;48653;51.742;-1.256;2023-06-24T04:08:48;101707.57;;;20.10;46.68
62055;BME280;48653;51.742;-1.256;2023-06-24T04:11:14;101704.77;;;19.49;47.58
62055;BME280;48653;51.742;-1.256;2023-06-24T04:13:39;101703.36;;;19.43;48.09
62055;BME280;48653;51.742;-1.256;2023-06-24T04:16:04;101703.86;;;19.62;48.05
62055;BME280;48653;51.742;-1.256;2023-06-24T04:18:29;101705.14;;;19.70;48.04
62055;BME280;48653;51.742;-1.256;2023-06-24T04:20:54;101706.51;;;19.82;48.22
62055;BME280;48653;51.742;-1.256;2023-06-24T04:23:19;101710.89;;;19.60;47.76
62055;BME280;48653;51.742;-1.256;2023-06-24T04:25:44;101714.93;;;19.61;47.77
62055;BME280;48653;51.742;-1.256;2023-06-24T04:28:10;101709.48;;;20.10;47.85
62055;BME280;48653;51.742;-1.256;2023-06-24T04:30:35;101706.47;;;19.74;48.13
62055;BME280;48653;51.742;-1.256;2023-06-24T04:33:00;101704.13;;;19.70;48.33
62055;BME280;48653;51.742;-1.256;2023-06-24T04:35:26;101704.22;;;20.07;48.04
62055;BME280;48653;51.742;-1.256;2023-06-24T04:37:51;101709.45;;;19.97;47.34
62055;BME280;48653;51.742;-1.256;2023-06-24T04:40:17;101712.49;;;20.16;47.54
62055;BME280;48653;51.742;-1.256;2023-06-24T04:42:41;101714.25;;;20.06;47.70
62055;BME280;48653;51.742;-1.256;2023-06-24T04:45:07;101716.17;;;19.89;47.99
62055;BME280;48653;51.742;-1.256;2023-06-24T04:47:32;101720.87;;;20.36;47.67
62055;BME280;48653;51.742;-1.256;2023-06-24T04:49:57;101719.27;;;20.07;47.65
62055;BME280;48653;51.742;-1.256;2023-06-24T04:52:23;101726.29;;;20.37;46.78
62055;BME280;48653;51.742;-1.256;2023-06-24T04:54:47;101727.79;;;20.71;47.39
62055;BME280;48653;51.742;-1.256;2023-06-24T04:57:23;101730.81;;;20.53;47.56
62055;BME280;48653;51.742;-1.256;2023-06-24T04:59:37;101731.78;;;20.37;47.30
62055;BME280;48653;51.742;-1.256;2023-06-24T05:02:03;101730.00;;;20.32;47.25
62055;BME280;48653;51.742;-1.256;2023-06-24T05:04:28;101730.08;;;20.09;47.91
62055;BME280;48653;51.742;-1.256;2023-06-24T05:06:53;101729.18;;;20.10;48.22
62055;BME280;48653;51.742;-1.256;2023-06-24T05:09:18;101723.45;;;19.94;48.67
62055;BME280;48653;51.742;-1.256;2023-06-24T05:11:43;101724.39;;;19.19;50.43
62055;BME280;48653;51.742;-1.256;2023-06-24T05:14:08;101723.47;;;19.62;49.06
62055;BME280;48653;51.742;-1.256;2023-06-24T05:16:33;101720.79;;;19.84;49.21
62055;BME280;48653;51.742;-1.256;2023-06-24T05:18:58;101726.37;;;20.71;47.72
62055;BME280;48653;51.742;-1.256;2023-06-24T05:21:23;101725.79;;;19.98;48.64
62055;BME280;48653;51.742;-1.256;2023-06-24T05:23:48;101729.53;;;20.58;48.28
62055;BME280;48653;51.742;-1.256;2023-06-24T05:26:13;101729.64;;;20.58;47.87
62055;BME280;48653;51.742;-1.256;2023-06-24T05:28:38;101723.04;;;20.20;47.96
62055;BME280;48653;51.742;-1.256;2023-06-24T05:31:04;101725.11;;;20.33;48.00
62055;BME280;48653;51.742;-1.256;2023-06-24T05:33:29;101723.94;;;20.69;47.81
62055;BME280;48653;51.742;-1.256;2023-06-24T05:35:55;101723.90;;;20.66;47.89
62055;BME280;48653;51.742;-1.256;2023-06-24T05:38:20;101721.69;;;20.44;47.74
62055;BME280;48653;51.742;-1.256;2023-06-24T05:40:45;101725.18;;;20.71;47.92
62055;BME280;48653;51.742;-1.256;2023-06-24T05:43:10;101723.85;;;20.69;47.94
62055;BME280;48653;51.742;-1.256;2023-06-24T05:45:35;101725.70;;;20.84;47.48
62055;BME280;48653;51.742;-1.256;2023-06-24T05:48:02;101731.14;;;20.23;47.77
62055;BME280;48653;51.742;-1.256;2023-06-24T05:50:26;101724.31;;;20.98;47.28
62055;BME280;48653;51.742;-1.256;2023-06-24T05:52:51;101725.32;;;21.05;47.44
62055;BME280;48653;51.742;-1.256;2023-06-24T05:55:16;101725.14;;;20.81;47.33
62055;BME280;48653;51.742;-1.256;2023-06-24T05:57:41;101732.60;;;20.96;47.61
62055;BME280;48653;51.742;-1.256;2023-06-24T06:00:07;101730.51;;;21.56;46.42
62055;BME280;48653;51.742;-1.256;2023-06-24T06:02:32;101728.47;;;21.03;46.81
62055;BME280;48653;51.742;-1.256;2023-06-24T06:04:58;101724.07;;;21.46;46.49
62055;BME280;48653;51.742;-1.256;2023-06-24T06:07:23;101724.55;;;21.17;47.48
62055;BME280;48653;51.742;-1.256;2023-06-24T06:09:48;101723.50;;;20.87;47.60
62055;BME280;48653;51.742;-1.256;2023-06-24T06:12:13;101723.88;;;21.30;47.22
62055;BME280;48653;51.742;-1.256;2023-06-24T06:14:38;101724.38;;;20.15;49.48
62055;BME280;48653;51.742;-1.256;2023-06-24T06:17:04;101720.76;;;20.60;48.96
62055;BME280;48653;51.742;-1.256;2023-06-24T06:19:29;101722.38;;;21.31;47.46
62055;BME280;48653;51.742;-1.256;2023-06-24T06:21:54;101731.40;;;21.32;47.53
62055;BME280;48653;51.742;-1.256;2023-06-24T06:24:19;101728.02;;;21.55;46.80
62055;BME280;48653;51.742;-1.256;2023-06-24T06:26:45;101727.44;;;21.54;46.79
62055;BME280;48653;51.742;-1.256;2023-06-24T06:29:09;101716.41;;;21.71;46.04
62055;BME280;48653;51.742;-1.256;2023-06-24T06:31:35;101726.65;;;21.12;47.23
62055;BME280;48653;51.742;-1.256;2023-06-24T06:34:00;101723.89;;;21.13;47.37
62055;BME280;48653;51.742;-1.256;2023-06-24T06:36:25;101725.16;;;21.81;46.61
62055;BME280;48653;51.742;-1.256;2023-06-24T06:38:50;101723.53;;;21.77;46.83
62055;BME280;48653;51.742;-1.256;2023-06-24T06:41:15;101716.69;;;21.75;46.60
62055;BME280;48653;51.742;-1.256;2023-06-24T06:43:41;101727.02;;;21.59;46.69
62055;BME280;48653;51.742;-1.256;2023-06-24T06:46:07;101730.70;;;22.05;46.62
62055;BME280;48653;51.742;-1.256;2023-06-24T06:48:32;101732.66;;;21.59;46.93
62055;BME280;48653;51.742;-1.256;2023-06-24T06:50:57;101740.32;;;22.05;47.09
62055;BME280;48653;51.742;-1.256;2023-06-24T06:53:22;101739.23;;;21.78;47.48
62055;BME280;48653;51.742;-1.256;2023-06-24T06:55:48;101747.02;;;22.53;46.93
62055;BME280;48653;51.742;-1.256;2023-06-24T06:58:13;101743.06;;;22.19;46.24
62055;BME280;48653;51.742;-1.256;2023-06-24T07:00:39;101745.14;;;22.40;45.97
62055;BME280;48653;51.742;-1.256;2023-06-24T07:03:04;101751.57;;;21.76;47.56
62055;BME280;48653;51.742;-1.256;2023-06-24T07:05:29;101744.20;;;22.41;46.91
62055;BME280;48653;51.742;-1.256;2023-06-24T07:07:54;101745.03;;;22.42;46.28
62055;BME280;48653;51.742;-1.256;2023-06-24T07:10:19;101750.44;;;22.51;45.44
62055;BME280;48653;51.742;-1.256;2023-06-24T07:12:45;101751.31;;;22.99;45.13
62055;BME280;48653;51.742;-1.256;2023-06-24T07:15:10;101746.93;;;22.52;45.93
62055;BME280;48653;51.742;-1.256;2023-06-24T07:17:35;101750.15;;;23.26;45.54
62055;BME280;48653;51.742;-1.256;2023-06-24T07:20:00;101752.80;;;22.86;44.84
62055;BME280;48653;51.742;-1.256;2023-06-24T07:22:26;101753.71;;;22.42;45.04
62055;BME280;48653;51.742;-1.256;2023-06-24T07:24:51;101753.59;;;22.04;46.33
62055;BME280;48653;51.742;-1.256;2023-06-24T07:27:16;101756.48;;;22.95;45.85
62055;BME280;48653;51.742;-1.256;2023-06-24T07:29:41;101760.03;;;23.67;44.09
62055;BME280;48653;51.742;-1.256;2023-06-24T07:32:07;101758.58;;;23.31;44.47
62055;BME280;48653;51.742;-1.256;2023-06-24T07:34:31;101759.39;;;23.54;44.37
62055;BME280;48653;51.742;-1.256;2023-06-24T07:36:58;101764.70;;;23.61;44.24
62055;BME280;48653;51.742;-1.256;2023-06-24T07:39:22;101766.26;;;24.08;43.14
62055;BME280;48653;51.742;-1.256;2023-06-24T07:41:47;101761.73;;;23.63;43.85
62055;BME280;48653;51.742;-1.256;2023-06-24T07:44:12;101759.97;;;23.54;43.28
62055;BME280;48653;51.742;-1.256;2023-06-24T07:46:37;101757.39;;;23.79;43.00
62055;BME280;48653;51.742;-1.256;2023-06-24T07:49:02;101753.07;;;24.18;42.54
62055;BME280;48653;51.742;-1.256;2023-06-24T07:51:27;101755.31;;;24.02;42.50
62055;BME280;48653;51.742;-1.256;2023-06-24T07:53:53;101750.58;;;24.16;42.30
62055;BME280;48653;51.742;-1.256;2023-06-24T07:56:18;101749.12;;;23.59;43.25
62055;BME280;48653;51.742;-1.256;2023-06-24T07:58:43;101752.83;;;24.53;42.34
62055;BME280;48653;51.742;-1.256;2023-06-24T08:01:08;101757.32;;;24.71;42.24
62055;BME280;48653;51.742;-1.256;2023-06-24T08:03:33;101758.50;;;24.66;42.91
62055;BME280;48653;51.742;-1.256;2023-06-24T08:05:58;101755.98;;;24.28;42.05
62055;BME280;48653;51.742;-1.256;2023-06-24T08:08:23;101756.84;;;24.65;41.68
62055;BME280;48653;51.742;-1.256;2023-06-24T08:10:48;101757.41;;;24.42;43.36
62055;BME280;48653;51.742;-1.256;2023-06-24T08:13:13;101757.92;;;25.15;41.66
62055;BME280;48653;51.742;-1.256;2023-06-24T08:15:38;101752.66;;;24.04;42.51
62055;BME280;48653;51.742;-1.256;2023-06-24T08:20:29;101751.09;;;24.05;43.35
62055;BME280;48653;51.742;-1.256;2023-06-24T08:22:54;101759.37;;;24.89;42.49
62055;BME280;48653;51.742;-1.256;2023-06-24T08:25:19;101754.59;;;23.94;43.07
62055;BME280;48653;51.742;-1.256;2023-06-24T08:27:45;101747.43;;;23.93;43.11
62055;BME280;48653;51.742;-1.256;2023-06-24T08:30:11;101739.53;;;23.71;43.12
62055;BME280;48653;51.742;-1.256;2023-06-24T08:32:35;101742.65;;;24.30;42.21
62055;BME280;48653;51.742;-1.256;2023-06-24T08:35:00;101739.65;;;23.38;44.41
62055;BME280;48653;51.742;-1.256;2023-06-24T08:37:25;101738.72;;;23.47;43.60
62055;BME280;48653;51.742;-1.256;2023-06-24T08:39:51;101737.96;;;23.81;43.89
62055;BME280;48653;51.742;-1.256;2023-06-24T08:42:16;101740.64;;;24.06;43.59
62055;BME280;48653;51.742;-1.256;2023-06-24T08:44:41;101741.70;;;24.50;42.14
62055;BME280;48653;51.742;-1.256;2023-06-24T08:47:08;101743.17;;;24.58;42.12
62055;BME280;48653;51.742;-1.256;2023-06-24T08:49:33;101744.74;;;24.52;41.87
62055;BME280;48653;51.742;-1.256;2023-06-24T08:52:01;101746.84;;;24.13;42.85
62055;BME280;48653;51.742;-1.256;2023-06-24T08:54:23;101752.47;;;24.57;42.69
62055;BME280;48653;51.742;-1.256;2023-06-24T08:56:47;101749.84;;;24.70;42.98
62055;BME280;48653;51.742;-1.256;2023-06-24T08:59:13;101741.39;;;24.59;43.07
62055;BME280;48653;51.742;-1.256;2023-06-24T09:01:38;101741.59;;;24.78;43.10
62055;BME280;48653;51.742;-1.256;2023-06-24T09:04:04;101745.00;;;25.08;42.63
62055;BME280;48653;51.742;-1.256;2023-06-24T09:06:28;101740.84;;;25.45;41.97
62055;BME280;48653;51.742;-1.256;2023-06-24T09:08:54;101739.82;;;25.51;41.26
62055;BME280;48653;51.742;-1.256;2023-06-24T09:11:22;101733.08;;;25.71;40.65
62055;BME280;48653;51.742;-1.256;2023-06-24T09:13:44;101731.42;;;26.22;40.14
62055;BME280;48653;51.742;-1.256;2023-06-24T09:16:14;101730.33;;;26.15;40.89
62055;BME280;48653;51.742;-1.256;2023-06-24T09:18:34;101729.81;;;25.65;40.61
62055;BME280;48653;51.742;-1.256;2023-06-24T09:20:59;101729.35;;;25.71;41.04
62055;BME280;48653;51.742;-1.256;2023-06-24T09:23:26;101729.03;;;26.21;40.36
62055;BME280;48653;51.742;-1.256;2023-06-24T09:25:56;101727.52;;;26.87;40.28
62055;BME280;48653;51.742;-1.256;2023-06-24T09:28:15;101727.82;;;26.99;39.55
62055;BME280;48653;51.742;-1.256;2023-06-24T09:30:40;101729.68;;;27.33;39.74
62055;BME280;48653;51.742;-1.256;2023-06-24T09:33:05;101731.92;;;26.92;39.83
62055;BME280;48653;51.742;-1.256;2023-06-24T09:35:35;101730.18;;;26.61;40.12
62055;BME280;48653;51.742;-1.256;2023-06-24T09:42:50;101734.70;;;25.89;40.58
62055;BME280;48653;51.742;-1.256;2023-06-24T09:45:12;101730.52;;;25.35;41.20
62055;BME280;48653;51.742;-1.256;2023-06-24T09:50:01;101721.49;;;26.27;40.38
62055;BME280;48653;51.742;-1.256;2023-06-24T09:52:26;101721.98;;;25.70;40.75
62055;BME280;48653;51.742;-1.256;2023-06-24T09:54:51;101720.93;;;25.78;41.53
62055;BME280;48653;51.742;-1.256;2023-06-24T09:57:21;101720.60;;;26.00;41.44
62055;BME280;48653;51.742;-1.256;2023-06-24T09:59:41;101714.41;;;26.77;40.04
62055;BME280;48653;51.742;-1.256;2023-06-24T10:02:09;101709.03;;;26.58;40.34
62055;BME280;48653;51.742;-1.256;2023-06-24T10:04:32;101708.50;;;26.13;40.86
62055;BME280;48653;51.742;-1.256;2023-06-24T10:06:59;101710.78;;;25.77;41.47
62055;BME280;48653;51.742;-1.256;2023-06-24T10:09:23;101710.77;;;24.72;43.30
62055;BME280;48653;51.742;-1.256;2023-06-24T10:11:48;101702.50;;;24.14;42.83
62055;BME280;48653;51.742;-1.256;2023-06-24T10:14:13;101699.00;;;26.14;41.05
62055;BME280;48653;51.742;-1.256;2023-06-24T10:16:38;101697.78;;;26.06;40.63
62055;BME280;48653;51.742;-1.256;2023-06-24T10:19:03;101695.62;;;27.10;39.83
62055;BME280;48653;51.742;-1.256;2023-06-24T10:23:53;101690.77;;;27.62;37.92
62055;BME280;48653;51.742;-1.256;2023-06-24T10:26:23;101686.75;;;28.15;37.31
62055;BME280;48653;51.742;-1.256;2023-06-24T10:31:09;101688.78;;;28.10;38.23
62055;BME280;48653;51.742;-1.256;2023-06-24T10:33:38;101685.80;;;28.79;36.93
62055;BME280;48653;51.742;-1.256;2023-06-24T10:36:00;101685.92;;;27.35;38.07
62055;BME280;48653;51.742;-1.256;2023-06-24T10:38:24;101683.82;;;27.42;38.61
62055;BME280;48653;51.742;-1.256;2023-06-24T10:40:49;101683.63;;;28.05;38.01
62055;BME280;48653;51.742;-1.256;2023-06-24T10:43:27;101678.17;;;28.14;38.19
62055;BME280;48653;51.742;-1.256;2023-06-24T10:45:48;101672.53;;;27.91;38.18
62055;BME280;48653;51.742;-1.256;2023-06-24T10:48:05;101672.48;;;28.59;37.88
62055;BME280;48653;51.742;-1.256;2023-06-24T10:50:29;101669.94;;;28.51;36.30
62055;BME280;48653;51.742;-1.256;2023-06-24T10:52:54;101669.51;;;29.01;36.15
62055;BME280;48653;51.742;-1.256;2023-06-24T10:55:19;101664.23;;;28.60;35.50
62055;BME280;48653;51.742;-1.256;2023-06-24T10:57:45;101666.96;;;29.50;35.01
62055;BME280;48653;51.742;-1.256;2023-06-24T11:00:11;101665.87;;;28.41;36.06
62055;BME280;48653;51.742;-1.256;2023-06-24T11:02:35;101665.22;;;29.00;35.72
62055;BME280;48653;51.742;-1.256;2023-06-24T11:05:01;101660.96;;;30.37;35.14
62055;BME280;48653;51.742;-1.256;2023-06-24T11:07:26;101660.91;;;29.05;33.99
62055;BME280;48653;51.742;-1.256;2023-06-24T11:09:50;101661.74;;;29.75;34.65
62055;BME280;48653;51.742;-1.256;2023-06-24T11:12:15;101653.98;;;29.91;34.90
62055;BME280;48653;51.742;-1.256;2023-06-24T11:14:41;101654.32;;;29.92;33.92
62055;BME280;48653;51.742;-1.256;2023-06-24T11:17:06;101659.58;;;29.50;34.10
62055;BME280;48653;51.742;-1.256;2023-06-24T11:19:31;101658.89;;;29.46;33.75
62055;BME280;48653;51.742;-1.256;2023-06-24T11:21:59;101655.61;;;29.89;34.50
62055;BME280;48653;51.742;-1.256;2023-06-24T11:24:21;101651.02;;;29.69;34.03
62055;BME280;48653;51.742;-1.256;2023-06-24T11:26:46;101652.54;;;28.98;34.07
62055;BME280;48653;51.742;-1.256;2023-06-24T11:29:12;101652.73;;;28.76;35.05
62055;BME280;48653;51.742;-1.256;2023-06-24T11:31:36;101652.59;;;28.53;35.11
62055;BME280;48653;51.742;-1.256;2023-06-24T11:34:01;101652.57;;;28.51;34.38
62055;BME280;48653;51.742;-1.256;2023-06-24T11:36:27;101644.43;;;29.43;34.11
62055;BME280;48653;51.742;-1.256;2023-06-24T11:38:52;101640.83;;;29.50;34.17
62055;BME280;48653;51.742;-1.256;2023-06-24T11:41:20;101637.92;;;29.53;33.64
62055;BME280;48653;51.742;-1.256;2023-06-24T11:43:44;101638.58;;;28.52;34.46
62055;BME280;48653;51.742;-1.256;2023-06-24T11:46:10;101633.85;;;29.11;34.77
62055;BME280;48653;51.742;-1.256;2023-06-24T11:48:39;101631.79;;;28.80;35.21
62055;BME280;48653;51.742;-1.256;2023-06-24T11:50:59;101632.39;;;28.82;34.82
62055;BME280;48653;51.742;-1.256;2023-06-24T11:53:29;101634.12;;;28.76;35.01
62055;BME280;48653;51.742;-1.256;2023-06-24T11:55:52;101631.22;;;30.42;34.18
62055;BME280;48653;51.742;-1.256;2023-06-24T11:58:19;101629.49;;;29.33;33.47
62055;BME280;48653;51.742;-1.256;2023-06-24T12:00:41;101628.41;;;29.34;35.78
62055;BME280;48653;51.742;-1.256;2023-06-24T12:03:06;101628.65;;;29.46;33.96
62055;BME280;48653;51.742;-1.256;2023-06-24T12:05:32;101622.78;;;29.03;34.46
62055;BME280;48653;51.742;-1.256;2023-06-24T12:07:57;101617.32;;;30.27;33.07
62055;BME280;48653;51.742;-1.256;2023-06-24T12:10:21;101615.29;;;30.71;32.31
62055;BME280;48653;51.742;-1.256;2023-06-24T12:12:46;101613.81;;;31.50;32.21
62055;BME280;48653;51.742;-1.256;2023-06-24T12:15:11;101614.30;;;31.21;31.07
62055;BME280;48653;51.742;-1.256;2023-06-24T12:17:36;101615.22;;;31.47;31.75
62055;BME280;48653;51.742;-1.256;2023-06-24T12:20:01;101614.34;;;31.39;30.81
62055;BME280;48653;51.742;-1.256;2023-06-24T12:22:26;101615.08;;;32.31;32.39
62055;BME280;48653;51.742;-1.256;2023-06-24T12:24:51;101611.84;;;31.21;31.72
62055;BME280;48653;51.742;-1.256;2023-06-24T12:27:16;101606.01;;;31.06;31.40
62055;BME280;48653;51.742;-1.256;2023-06-24T12:29:41;101601.31;;;31.73;31.24
62055;BME280;48653;51.742;-1.256;2023-06-24T12:32:07;101599.22;;;32.19;30.92
62055;BME280;48653;51.742;-1.256;2023-06-24T12:34:31;101593.33;;;32.96;29.56
62055;BME280;48653;51.742;-1.256;2023-06-24T12:36:56;101594.52;;;33.08;29.91
62055;BME280;48653;51.742;-1.256;2023-06-24T12:39:21;101594.44;;;33.04;29.29
62055;BME280;48653;51.742;-1.256;2023-06-24T12:41:46;101593.94;;;32.04;29.85
62055;BME280;48653;51.742;-1.256;2023-06-24T12:44:12;101595.09;;;33.41;28.86
62055;BME280;48653;51.742;-1.256;2023-06-24T12:46:37;101592.51;;;32.69;28.99
62055;BME280;48653;51.742;-1.256;2023-06-24T12:49:02;101596.11;;;33.08;29.40
62055;BME280;48653;51.742;-1.256;2023-06-24T12:51:27;101593.50;;;31.25;29.95